map of VIL home
VIL - Airport
Location
City:  Villa Cisneros, Western Sahara
Name:Dakhla
ICAO:GMMH
IATA:VIL

Details
Type:Airport (Aerodrome, Airfield)
Use:Public/Civil, Military, International (customs port of entry)
Latitude:2343'06"N (23.718294)
Longitude:1555'55"W (-15.931993)
Datum:WGS 1984
Elevation:36 ft (11 m)
Variation:5.15W (WMM2015 magnetic declination)
0.11 annual change
Runways:1
Longest:9842 × 148 ft (3000 × 45 m), paved

Time
Time Zone:UTC+0
Local Time:

Weather
METAR:GMMH 152100Z 02008KT 6000 NSC 18/15 Q1022 NOSIG
TAF:GMMH 151700Z 1518/1624 36010KT 8000 BKN026 PROB40 1600/1608 2000 BR OVC008

Related Locations
Nearby:
Farthest:NWWB: 12266 mi / 19740 km
Bourail Poe, NC

Find:

   beyond  
but within

Other Information
Maps:
NOTAMs:
Links:
Sources:

  

Sectional Chart

Flight Planning
at skyvector.com

Satellite Image

Google Maps Satellite view

 

Copyright © 2004-2018 Karl L. Swartz. All rights reserved.
The Great Circle Mapper name and logo are trademarks of the Great Circle Mapper.
All other trademarks mentioned herein belong to their respective owners.
Please see credits for attibutions and further copyright information.

  Follow gcmap on Facebook Follow gcmap on Twitter Follow gcmap on Google+ GCmap on LinkedIn

hCard Microformat

Geo Microformat